createdAt,value
2023-02-18T00:02:12.960Z,1.97
2023-02-18T00:04:42.455Z,2.50
2023-02-18T00:07:12.072Z,4.17
2023-02-18T00:09:41.520Z,3.73
2023-02-18T00:12:11.076Z,2.10
2023-02-18T00:14:40.913Z,2.27
2023-02-18T00:17:10.451Z,1.43
2023-02-18T00:19:39.936Z,2.43
2023-02-18T00:22:10.079Z,2.10
2023-02-18T00:24:40.207Z,2.10
2023-02-18T00:27:10.077Z,1.97
2023-02-18T00:29:39.547Z,3.90
2023-02-18T00:32:09.073Z,2.23
2023-02-18T00:34:38.789Z,1.97
2023-02-18T00:37:08.297Z,2.07
2023-02-18T00:39:37.787Z,1.73
2023-02-18T00:42:07.309Z,2.70
2023-02-18T00:44:36.865Z,2.47
2023-02-18T00:47:06.356Z,1.70
2023-02-18T00:49:35.786Z,1.60
2023-02-18T00:52:06.441Z,2.03
2023-02-18T00:54:35.931Z,2.87
2023-02-18T00:57:05.517Z,1.93
2023-02-18T00:59:34.994Z,1.80
2023-02-18T01:02:04.548Z,0.97
2023-02-18T01:04:34.096Z,2.70
2023-02-18T01:07:03.659Z,2.00
2023-02-18T01:09:33.121Z,2.60
2023-02-18T01:12:02.625Z,2.67
2023-02-18T01:14:32.100Z,1.70
2023-02-18T01:17:01.606Z,1.73
2023-02-18T01:19:31.051Z,2.63
2023-02-18T01:22:00.542Z,1.30
2023-02-18T01:24:30.031Z,1.67
2023-02-18T01:26:59.551Z,1.60
2023-02-18T01:29:29.026Z,3.80
2023-02-18T01:31:59.185Z,3.47
2023-02-18T01:34:28.702Z,2.43
2023-02-18T01:36:58.192Z,3.73
2023-02-18T01:39:27.849Z,2.47
2023-02-18T01:41:57.323Z,1.40
2023-02-18T01:44:30.047Z,1.87
2023-02-18T01:46:59.670Z,1.70
2023-02-18T01:49:33.731Z,2.80
2023-02-18T01:52:13.162Z,2.13
2023-02-18T01:54:53.405Z,1.57
2023-02-18T01:57:32.653Z,3.03
2023-02-18T02:00:15.982Z,1.87
2023-02-18T02:02:48.292Z,1.30
2023-02-18T02:05:20.185Z,1.90
2023-02-18T02:07:54.575Z,2.80
2023-02-18T02:10:24.189Z,3.67
2023-02-18T02:13:04.269Z,2.57
2023-02-18T02:15:50.081Z,2.23
2023-02-18T02:18:55.744Z,2.97
2023-02-18T02:21:35.630Z,3.33
2023-02-18T02:24:32.508Z,1.03
2023-02-18T02:27:18.652Z,2.80
2023-02-18T02:30:24.417Z,3.03
2023-02-18T02:33:30.010Z,1.67
2023-02-18T02:36:10.089Z,2.07
2023-02-18T02:39:04.025Z,1.60
2023-02-18T02:41:52.616Z,3.07
2023-02-18T02:44:35.520Z,1.13
2023-02-18T02:47:12.368Z,2.50
2023-02-18T02:50:21.578Z,2.20
2023-02-18T02:52:55.698Z,1.63
2023-02-18T02:55:25.315Z,2.30
2023-02-18T02:57:58.189Z,1.40
2023-02-18T03:00:51.468Z,1.27
2023-02-18T03:03:40.147Z,1.77
2023-02-18T03:06:30.708Z,2.50
2023-02-18T03:09:22.434Z,0.70
2023-02-18T03:12:11.088Z,2.93
2023-02-18T03:14:47.725Z,1.77
2023-02-18T03:17:39.561Z,2.73
2023-02-18T03:20:50.062Z,1.43
2023-02-18T03:23:24.222Z,1.30
2023-02-18T03:25:55.283Z,1.27
2023-02-18T03:28:31.144Z,1.50
2023-02-18T03:31:17.396Z,1.83
2023-02-18T03:33:57.290Z,2.03
2023-02-18T03:36:28.305Z,2.57
2023-02-18T03:39:07.502Z,2.10
2023-02-18T03:41:38.035Z,1.43
2023-02-18T03:44:11.481Z,1.23
2023-02-18T03:46:44.215Z,1.43
2023-02-18T03:49:16.079Z,1.00
2023-02-18T03:51:45.827Z,0.97
2023-02-18T03:54:15.379Z,0.87
2023-02-18T03:56:45.003Z,0.83
2023-02-18T03:59:15.119Z,1.63
2023-02-18T04:01:44.609Z,0.73
2023-02-18T04:04:14.153Z,0.97
2023-02-18T04:06:43.721Z,0.67
2023-02-18T04:09:13.231Z,2.00
2023-02-18T04:11:43.310Z,3.37
2023-02-18T04:14:15.670Z,0.93
2023-02-18T04:16:45.413Z,1.17
2023-02-18T04:19:15.056Z,1.50
2023-02-18T04:21:44.559Z,0.83
2023-02-18T04:24:14.127Z,1.23
2023-02-18T04:26:43.630Z,1.33
2023-02-18T04:29:13.386Z,0.83
2023-02-18T04:31:43.007Z,1.17
2023-02-18T04:34:12.605Z,1.07
2023-02-18T04:36:42.121Z,1.50
2023-02-18T04:39:11.694Z,1.63
2023-02-18T04:41:41.226Z,1.60
2023-02-18T04:44:10.729Z,2.20
2023-02-18T04:46:40.221Z,0.77
2023-02-18T04:49:09.736Z,1.77
2023-02-18T04:51:39.256Z,2.23
2023-02-18T04:59:26.551Z,1.40
2023-02-18T05:01:56.001Z,1.07
2023-02-18T05:04:25.857Z,0.70
2023-02-18T05:06:55.343Z,1.93
2023-02-18T05:09:25.057Z,0.40
2023-02-18T05:11:54.865Z,0.87
2023-02-18T05:14:24.301Z,2.00
2023-02-18T05:16:53.794Z,0.40
2023-02-18T05:19:23.217Z,0.23
2023-02-18T05:21:52.648Z,0.40
2023-02-18T05:24:22.381Z,1.47
2023-02-18T05:26:51.872Z,0.73
2023-02-18T05:29:21.309Z,1.30
2023-02-18T05:31:50.828Z,1.10
2023-02-18T05:34:20.304Z,0.43
2023-02-18T05:36:49.788Z,0.90
2023-02-18T05:39:19.244Z,1.93
2023-02-18T05:41:48.664Z,1.77
2023-02-18T05:44:33.803Z,1.73
2023-02-18T05:47:11.538Z,1.80
2023-02-18T05:49:44.134Z,0.73
2023-02-18T05:52:13.899Z,1.13
2023-02-18T05:54:44.610Z,1.07
2023-02-18T05:57:16.227Z,1.13
2023-02-18T05:59:45.722Z,0.43
2023-02-18T06:02:16.082Z,1.27
2023-02-18T06:04:45.544Z,0.97
2023-02-18T06:07:15.150Z,0.30
2023-02-18T06:09:44.593Z,0.40
2023-02-18T06:12:14.209Z,0.60
2023-02-18T06:14:43.898Z,0.53
2023-02-18T06:17:15.759Z,0.50
2023-02-18T06:19:45.715Z,0.60
2023-02-18T06:22:15.765Z,2.08
2023-02-18T06:24:45.174Z,0.40
2023-02-18T06:27:14.615Z,0.30
2023-02-18T06:29:44.032Z,0.90
2023-02-18T06:32:13.573Z,1.07
2023-02-18T06:34:43.050Z,1.70
2023-02-18T06:37:12.479Z,0.50
2023-02-18T06:39:42.385Z,0.90
2023-02-18T06:42:11.808Z,0.73
2023-02-18T06:44:41.237Z,0.60
2023-02-18T06:47:10.659Z,0.40
2023-02-18T06:49:40.096Z,1.93
2023-02-18T06:52:09.528Z,0.40
2023-02-18T06:54:39.110Z,0.57
2023-02-18T06:57:08.605Z,0.30
2023-02-18T06:59:38.096Z,0.67
2023-02-18T07:02:07.515Z,1.30
2023-02-18T07:04:36.939Z,1.83
2023-02-18T07:07:06.446Z,1.93
2023-02-18T07:09:35.859Z,0.73
2023-02-18T07:12:05.427Z,0.80
2023-02-18T07:14:34.916Z,0.83
2023-02-18T07:17:04.408Z,0.80
2023-02-18T07:19:33.880Z,0.43
2023-02-18T07:22:03.300Z,0.37
2023-02-18T07:24:32.727Z,0.77
2023-02-18T07:27:02.167Z,0.63
2023-02-18T07:29:31.584Z,0.50
2023-02-18T07:32:01.075Z,0.67
2023-02-18T07:34:30.520Z,0.70
2023-02-18T07:36:59.946Z,1.60
2023-02-18T07:39:29.363Z,1.23
2023-02-18T07:41:58.798Z,0.53
2023-02-18T07:44:28.241Z,0.80
2023-02-18T07:46:57.725Z,1.17
2023-02-18T07:49:27.422Z,0.33
2023-02-18T07:51:56.849Z,0.50
2023-02-18T07:54:26.715Z,0.43
2023-02-18T07:56:56.136Z,0.50
2023-02-18T07:59:25.572Z,0.60
2023-02-18T08:01:55.122Z,0.57
2023-02-18T08:04:24.737Z,0.80
2023-02-18T08:06:54.159Z,0.73
2023-02-18T08:09:23.762Z,0.83
2023-02-18T08:11:53.266Z,1.13
2023-02-18T08:14:22.707Z,1.33
2023-02-18T08:16:53.261Z,0.77
2023-02-18T08:19:22.723Z,0.37
2023-02-18T08:21:52.172Z,0.47
2023-02-18T08:24:22.025Z,0.53
2023-02-18T08:27:00.501Z,1.63
2023-02-18T08:29:22.655Z,1.77
2023-02-18T08:31:53.895Z,0.50
2023-02-18T08:34:23.466Z,0.30
2023-02-18T08:36:52.891Z,0.33
2023-02-18T08:39:22.348Z,0.50
2023-02-18T08:41:51.793Z,0.40
2023-02-18T08:44:21.261Z,0.23
2023-02-18T08:46:50.768Z,0.30
2023-02-18T08:49:21.029Z,0.33
2023-02-18T08:51:51.040Z,0.50
2023-02-18T08:54:20.783Z,1.07
2023-02-18T08:56:50.271Z,0.50
2023-02-18T08:59:19.716Z,0.30
2023-02-18T09:01:49.247Z,0.47
2023-02-18T09:04:21.330Z,0.53
2023-02-18T09:06:51.191Z,0.60
2023-02-18T09:09:20.865Z,0.63
2023-02-18T09:11:50.550Z,0.87
2023-02-18T09:14:20.008Z,0.50
2023-02-18T09:16:50.610Z,0.40
2023-02-18T09:19:20.598Z,0.30
2023-02-18T09:21:53.821Z,0.60
2023-02-18T09:24:24.744Z,0.97
2023-02-18T09:26:55.550Z,0.60
2023-02-18T09:29:24.994Z,0.60
2023-02-18T09:31:54.577Z,0.70
2023-02-18T09:34:24.206Z,0.30
2023-02-18T09:36:53.752Z,0.83
2023-02-18T09:39:23.432Z,1.47
2023-02-18T09:41:57.116Z,0.50
2023-02-18T09:44:39.745Z,0.50
2023-02-18T09:47:16.653Z,0.47
2023-02-18T09:49:50.727Z,0.93
2023-02-18T09:52:30.852Z,1.17
2023-02-18T09:55:00.916Z,2.33
2023-02-18T09:57:37.634Z,0.60
2023-02-18T10:00:14.692Z,0.87
2023-02-18T10:03:06.977Z,0.70
2023-02-18T10:05:38.390Z,0.40
2023-02-18T10:08:23.831Z,0.40
2023-02-18T10:10:53.356Z,0.73
2023-02-18T10:13:27.404Z,1.33
2023-02-18T10:15:57.085Z,0.77
2023-02-18T10:18:42.547Z,1.20
2023-02-18T10:21:18.028Z,0.97
2023-02-18T10:24:07.341Z,1.93
2023-02-18T10:26:40.610Z,0.53
2023-02-18T10:29:21.657Z,0.70
2023-02-18T10:32:07.444Z,0.83
2023-02-18T10:35:27.092Z,0.90
2023-02-18T10:38:16.145Z,0.70
2023-02-18T10:40:55.416Z,0.95
2023-02-18T10:43:38.360Z,0.97
2023-02-18T10:46:36.353Z,0.40
2023-02-18T10:49:37.764Z,0.40
2023-02-18T10:52:12.051Z,0.53
2023-02-18T10:55:10.465Z,0.67
2023-02-18T10:57:55.738Z,0.67
2023-02-18T11:00:28.620Z,1.33
2023-02-18T11:03:23.461Z,1.73
2023-02-18T11:05:57.046Z,1.17
2023-02-18T11:08:33.672Z,1.37
2023-02-18T11:11:22.858Z,0.60
2023-02-18T11:13:58.991Z,1.90
2023-02-18T11:16:49.062Z,0.47
2023-02-18T11:19:38.331Z,0.43
2023-02-18T11:22:20.922Z,0.88
2023-02-18T11:24:56.123Z,0.43
2023-02-18T11:27:51.422Z,0.30
2023-02-18T11:30:46.526Z,0.67
2023-02-18T11:33:23.571Z,0.50
2023-02-18T11:35:56.836Z,0.30
2023-02-18T11:38:33.812Z,0.30
2023-02-18T11:41:13.680Z,0.87
2023-02-18T11:43:50.480Z,1.10
2023-02-18T11:46:26.961Z,0.83
2023-02-18T11:48:57.713Z,0.40
2023-02-18T11:51:31.577Z,0.60
2023-02-18T11:54:23.461Z,0.43
2023-02-18T11:57:12.398Z,0.60
2023-02-18T11:59:43.521Z,0.50
2023-02-18T12:02:32.570Z,0.40
2023-02-18T12:05:06.999Z,0.53
2023-02-18T12:07:52.975Z,0.43
2023-02-18T12:10:38.883Z,0.60
2023-02-18T12:13:30.648Z,0.40
2023-02-18T12:16:04.760Z,0.70
2023-02-18T12:18:42.878Z,0.60
2023-02-18T12:21:35.372Z,0.97
2023-02-18T12:24:21.457Z,1.00
2023-02-18T12:27:20.162Z,1.20
2023-02-18T12:30:12.280Z,0.93
2023-02-18T12:33:04.447Z,0.90
2023-02-18T12:36:01.526Z,1.47
2023-02-18T12:39:02.681Z,1.20
2023-02-18T12:41:54.666Z,1.50
2023-02-18T12:44:44.122Z,1.13
2023-02-18T12:47:38.179Z,1.40
2023-02-18T12:50:32.315Z,1.20
2023-02-18T12:53:26.953Z,1.00
2023-02-18T12:56:18.911Z,1.60
2023-02-18T12:59:21.445Z,0.90
2023-02-18T13:02:19.561Z,1.63
2023-02-18T13:05:30.055Z,0.80
2023-02-18T13:08:09.659Z,0.93
2023-02-18T13:11:04.556Z,0.80
2023-02-18T13:13:50.489Z,0.73
2023-02-18T13:16:23.514Z,0.80
2023-02-18T13:19:05.943Z,0.60
2023-02-18T13:21:38.916Z,0.70
2023-02-18T13:24:27.753Z,0.70
2023-02-18T13:27:18.032Z,0.73
2023-02-18T13:30:06.851Z,0.60
2023-02-18T13:32:59.342Z,0.50
2023-02-18T13:35:51.698Z,0.70
2023-02-18T13:38:59.374Z,0.60
2023-02-18T13:41:29.458Z,0.53
2023-02-18T13:43:58.902Z,0.40
2023-02-18T13:46:28.647Z,0.40
2023-02-18T13:49:09.103Z,0.30
2023-02-18T13:51:48.718Z,0.20
2023-02-18T13:54:40.736Z,0.37
2023-02-18T13:57:20.035Z,0.20
2023-02-18T13:59:54.132Z,0.40
2023-02-18T14:02:28.265Z,0.40
2023-02-18T14:05:00.979Z,0.40
2023-02-18T14:07:39.111Z,0.50
2023-02-18T14:10:21.908Z,0.50
2023-02-18T14:13:05.136Z,0.50
2023-02-18T14:15:39.211Z,0.50
2023-02-18T14:18:28.235Z,0.33
2023-02-18T14:21:14.696Z,0.40
2023-02-18T14:23:54.541Z,0.60
2023-02-18T14:26:37.999Z,0.60
2023-02-18T14:29:23.519Z,0.30
2023-02-18T14:32:01.196Z,0.30
2023-02-18T14:34:55.105Z,0.50
2023-02-18T14:38:07.057Z,0.50
2023-02-18T14:40:52.954Z,0.40
2023-02-18T14:43:44.373Z,0.50
2023-02-18T14:46:27.648Z,0.40
2023-02-18T14:49:19.751Z,0.30
2023-02-18T14:51:51.315Z,0.50
2023-02-18T14:54:24.460Z,0.50
2023-02-18T14:57:07.013Z,0.50
2023-02-18T14:59:46.930Z,0.50
2023-02-18T15:02:27.596Z,0.53
2023-02-18T15:04:58.666Z,0.40
2023-02-18T15:07:28.100Z,0.50
2023-02-18T15:09:57.586Z,0.60
2023-02-18T15:12:27.571Z,0.60
2023-02-18T15:15:01.389Z,0.50
2023-02-18T15:17:32.083Z,0.60
2023-02-18T15:20:06.130Z,0.50
2023-02-18T15:22:37.600Z,0.50
2023-02-18T15:25:07.565Z,0.37
2023-02-18T15:27:43.922Z,0.30
2023-02-18T15:30:32.147Z,0.57
2023-02-18T15:33:02.924Z,0.40
2023-02-18T15:35:34.367Z,0.30
2023-02-18T15:38:04.561Z,0.33
2023-02-18T15:40:38.187Z,0.30
2023-02-18T15:43:09.038Z,0.30
2023-02-18T15:45:45.832Z,0.27
2023-02-18T15:48:33.374Z,0.30
2023-02-18T15:51:16.795Z,0.50
2023-02-18T15:53:43.258Z,0.10
2023-02-18T15:56:19.270Z,0.50
2023-02-18T15:58:48.714Z,0.20
2023-02-18T16:01:31.945Z,1.03
2023-02-18T16:04:01.357Z,0.40
2023-02-18T16:06:34.811Z,0.30
2023-02-18T16:09:12.380Z,0.30
2023-02-18T16:11:52.687Z,0.20
2023-02-18T16:14:39.422Z,0.40
2023-02-18T16:17:25.990Z,0.57
2023-02-18T16:20:06.029Z,0.30
2023-02-18T16:22:39.740Z,0.33
2023-02-18T16:25:45.967Z,0.40
2023-02-18T16:28:28.265Z,0.30
2023-02-18T16:30:57.723Z,0.27
2023-02-18T16:33:27.165Z,0.20
2023-02-18T16:35:57.736Z,0.30
2023-02-18T16:38:27.451Z,0.30
2023-02-18T16:40:56.905Z,0.70
2023-02-18T16:43:30.518Z,0.40
2023-02-18T16:46:10.670Z,0.70
2023-02-18T16:48:44.162Z,0.60
2023-02-18T16:51:18.576Z,0.60
2023-02-18T16:53:48.297Z,0.53
2023-02-18T16:56:25.005Z,0.40
2023-02-18T16:58:54.436Z,0.40
2023-02-18T17:01:29.099Z,0.60
2023-02-18T17:04:01.982Z,0.77
2023-02-18T17:06:32.476Z,0.40
2023-02-18T17:09:02.450Z,0.57
2023-02-18T17:11:37.182Z,0.40
2023-02-18T17:14:06.622Z,0.50
2023-02-18T17:16:36.309Z,0.50
2023-02-18T17:19:05.825Z,0.50
2023-02-18T17:21:35.284Z,0.30
2023-02-18T17:24:04.988Z,0.60
2023-02-18T17:26:34.908Z,0.43
2023-02-18T17:29:05.606Z,0.50
2023-02-18T17:31:44.133Z,0.33
2023-02-18T17:34:21.210Z,0.40
2023-02-18T17:36:50.677Z,0.30
2023-02-18T17:39:20.919Z,0.37
2023-02-18T17:41:50.463Z,0.40
2023-02-18T17:44:23.769Z,0.37
2023-02-18T17:46:54.776Z,0.60
2023-02-18T17:49:24.376Z,0.43
2023-02-18T17:51:53.826Z,0.50
2023-02-18T17:54:25.699Z,0.30
2023-02-18T17:56:56.034Z,0.40
2023-02-18T17:59:25.590Z,0.73
2023-02-18T18:01:55.045Z,0.40
2023-02-18T18:04:24.560Z,0.30
2023-02-18T18:06:55.494Z,0.30
2023-02-18T18:09:25.607Z,0.30
2023-02-18T18:11:55.091Z,0.37
2023-02-18T18:14:24.514Z,0.30
2023-02-18T18:16:54.008Z,0.30
2023-02-18T18:19:23.482Z,0.30
2023-02-18T18:21:53.722Z,0.43
2023-02-18T18:24:23.143Z,0.47
2023-02-18T18:26:52.592Z,0.60
2023-02-18T18:29:22.027Z,0.50
2023-02-18T18:31:51.507Z,0.30
2023-02-18T18:34:21.695Z,0.40
2023-02-18T18:36:51.160Z,0.50
2023-02-18T18:39:21.162Z,0.53
2023-02-18T18:41:50.627Z,0.57
2023-02-18T18:44:20.065Z,0.50
2023-02-18T18:46:49.535Z,0.80
2023-02-18T18:49:18.967Z,0.50
2023-02-18T18:51:48.501Z,0.80
2023-02-18T18:54:17.936Z,0.60
2023-02-18T18:56:49.030Z,0.67
2023-02-18T18:59:18.549Z,0.40
2023-02-18T19:01:48.059Z,0.40
2023-02-18T19:04:18.779Z,0.40
2023-02-18T19:06:48.206Z,0.40
2023-02-18T19:09:17.638Z,0.50
2023-02-18T19:11:47.104Z,0.40
2023-02-18T19:14:16.544Z,0.40
2023-02-18T19:16:46.260Z,0.30
2023-02-18T19:19:15.780Z,0.33
2023-02-18T19:21:46.486Z,0.33
2023-02-18T19:24:15.918Z,0.30
2023-02-18T19:26:45.366Z,0.30
2023-02-18T19:29:14.881Z,0.30
2023-02-18T19:31:44.977Z,0.30
2023-02-18T19:34:14.525Z,0.30
2023-02-18T19:36:45.709Z,0.33
2023-02-18T19:39:15.155Z,0.30
2023-02-18T19:41:44.611Z,0.30
2023-02-18T19:44:14.051Z,0.40
2023-02-18T19:46:43.522Z,0.40
2023-02-18T19:49:12.965Z,0.30
2023-02-18T19:51:42.426Z,0.30
2023-02-18T19:54:11.868Z,0.30
2023-02-18T19:56:41.313Z,0.40
2023-02-18T19:59:10.757Z,0.40
2023-02-18T20:01:40.962Z,0.30
2023-02-18T20:04:11.090Z,0.50
2023-02-18T20:06:40.671Z,0.60
2023-02-18T20:09:10.144Z,0.53
2023-02-18T20:11:39.593Z,0.50
2023-02-18T20:14:09.068Z,0.50
2023-02-18T20:16:38.503Z,0.50
2023-02-18T20:19:08.116Z,0.50
2023-02-18T20:21:37.564Z,0.63
2023-02-18T20:24:07.212Z,0.50
2023-02-18T20:26:36.663Z,0.73
2023-02-18T20:29:06.279Z,0.57
2023-02-18T20:31:35.874Z,0.53
2023-02-18T20:34:05.442Z,0.70
2023-02-18T20:36:34.890Z,0.90
2023-02-18T20:39:15.529Z,0.60
2023-02-18T20:41:35.751Z,0.60
2023-02-18T20:44:05.433Z,0.50
2023-02-18T20:46:35.206Z,0.50
2023-02-18T20:49:08.410Z,0.60
2023-02-18T20:51:38.408Z,0.50
2023-02-18T20:54:12.429Z,0.40
2023-02-18T20:56:43.218Z,0.50
2023-02-18T20:59:18.996Z,0.60
2023-02-18T21:01:49.673Z,0.57
2023-02-18T21:04:21.101Z,0.50
2023-02-18T21:06:50.788Z,0.70
2023-02-18T21:09:21.381Z,0.50
2023-02-18T21:11:50.912Z,0.50
2023-02-18T21:14:20.419Z,0.60
2023-02-18T21:16:49.919Z,0.50
2023-02-18T21:19:19.892Z,0.50
2023-02-18T21:21:49.420Z,0.50
2023-02-18T21:24:18.862Z,0.50
2023-02-18T21:26:48.420Z,0.50
2023-02-18T21:29:17.857Z,0.40
2023-02-18T21:31:47.587Z,0.70
2023-02-18T21:34:17.691Z,0.60
2023-02-18T21:36:47.148Z,0.50
2023-02-18T21:39:16.655Z,0.70
2023-02-18T21:41:46.111Z,0.50
2023-02-18T21:44:15.580Z,0.50
2023-02-18T21:46:45.075Z,0.50
2023-02-18T21:49:15.604Z,0.50
2023-02-18T21:51:57.257Z,0.43
2023-02-18T21:54:33.738Z,0.40
2023-02-18T21:57:06.245Z,0.60
2023-02-18T21:59:36.572Z,0.70
2023-02-18T22:02:09.964Z,0.70
2023-02-18T22:04:39.630Z,0.50
2023-02-18T22:07:09.072Z,0.70
2023-02-18T22:09:39.049Z,0.60
2023-02-18T22:12:09.042Z,0.30
2023-02-18T22:14:38.849Z,0.70
2023-02-18T22:17:08.383Z,0.60
2023-02-18T22:19:38.176Z,0.57
2023-02-18T22:22:07.626Z,0.60
2023-02-18T22:24:37.194Z,0.50
2023-02-18T22:27:06.657Z,0.47
2023-02-18T22:29:36.092Z,0.60
2023-02-18T22:32:05.928Z,0.80
2023-02-18T22:34:35.523Z,0.60
2023-02-18T22:37:05.001Z,0.47
2023-02-18T22:39:34.445Z,0.20
2023-02-18T22:42:03.903Z,0.50
2023-02-18T22:44:33.344Z,0.60
2023-02-18T22:47:02.796Z,0.40
2023-02-18T22:49:32.228Z,0.33
2023-02-18T22:52:01.670Z,0.50
2023-02-18T22:54:31.122Z,0.30
2023-02-18T22:57:00.565Z,0.60
2023-02-18T22:59:30.088Z,0.30
2023-02-18T23:01:59.521Z,0.57
2023-02-18T23:04:28.970Z,0.40
2023-02-18T23:06:59.914Z,0.30
2023-02-18T23:09:29.399Z,0.40
2023-02-18T23:11:59.716Z,0.27
2023-02-18T23:14:30.506Z,0.37
2023-02-18T23:17:16.981Z,0.33
2023-02-18T23:19:50.228Z,0.20
2023-02-18T23:22:31.853Z,0.30
2023-02-18T23:25:03.292Z,0.40
2023-02-18T23:27:32.758Z,0.40
2023-02-18T23:30:02.297Z,0.33
2023-02-18T23:32:32.022Z,0.40
2023-02-18T23:35:01.442Z,0.40
2023-02-18T23:37:48.653Z,0.40
2023-02-18T23:40:18.236Z,0.40
2023-02-18T23:42:47.677Z,0.30
2023-02-18T23:45:17.186Z,0.30
2023-02-18T23:47:46.639Z,0.47
2023-02-18T23:50:19.436Z,0.43
2023-02-18T23:52:50.393Z,0.40
2023-02-18T23:55:19.839Z,0.50
2023-02-18T23:57:49.284Z,0.40
